Terminal Aerodrome Forecast
Issued by NWS Sterling, VA

Current Version | Previous Version | Graphics & Text | Print | Product List | Glossary On
Versions: 1 2 3 4 5 6 7 8 9 10 11 12 13 14 15 16 17 18 19 20
100
FTUS41 KLWX 261127
TAFDCA
TAF
KDCA 261127Z 2612/2712 20004KT P6SM FEW050
     FM261600 19007KT P6SM SCT050
     FM262100 19008KT P6SM VCTS BKN050CB
     FM270000 17006KT P6SM BKN050
     FM270600 20004KT P6SM SCT090
     FM270900 20004KT 5SM BR BKN090=

USA.gov is the U.S. government's official web portal to all federal, state and local government web resources and services.